createdAt,value
2022-08-10T00:03:51.123Z,5.57
2022-08-10T00:08:56.191Z,11.82
2022-08-10T00:14:01.280Z,6.43
2022-08-10T00:19:09.850Z,6.70
2022-08-10T00:24:16.591Z,7.33
2022-08-10T00:29:21.683Z,7.47
2022-08-10T00:34:29.371Z,6.97
2022-08-10T00:39:36.471Z,7.35
2022-08-10T00:44:46.184Z,6.47
2022-08-10T00:49:53.820Z,6.60
2022-08-10T00:54:59.380Z,6.40
2022-08-10T01:00:04.859Z,5.95
2022-08-10T01:05:15.450Z,5.68
2022-08-10T01:10:40.999Z,6.20
2022-08-10T01:15:54.805Z,6.25
2022-08-10T01:21:27.433Z,5.15
2022-08-10T01:26:49.245Z,4.07
2022-08-10T01:32:00.501Z,3.15
2022-08-10T01:37:08.399Z,2.40
2022-08-10T01:42:17.643Z,1.98
2022-08-10T01:47:39.902Z,1.65
2022-08-10T01:52:45.910Z,1.48
2022-08-10T01:57:51.663Z,1.85
2022-08-10T02:03:00.151Z,1.58
2022-08-10T02:08:06.545Z,1.75
2022-08-10T02:13:12.031Z,1.80
2022-08-10T02:18:20.196Z,2.00
2022-08-10T02:23:27.631Z,1.60
2022-08-10T02:28:34.875Z,1.67
2022-08-10T02:33:56.506Z,1.52
2022-08-10T02:39:05.599Z,1.52
2022-08-10T02:45:22.070Z,1.73
2022-08-10T02:49:44.835Z,1.85
2022-08-10T02:54:55.575Z,1.70
2022-08-10T03:00:06.887Z,2.00
2022-08-10T03:05:17.450Z,1.70
2022-08-10T03:10:25.019Z,2.00
2022-08-10T03:15:31.015Z,2.30
2022-08-10T03:20:40.532Z,2.22
2022-08-10T03:25:53.032Z,1.90
2022-08-10T03:31:00.992Z,2.00
2022-08-10T03:36:43.889Z,2.17
2022-08-10T03:41:38.402Z,2.17
2022-08-10T03:46:46.036Z,2.03
2022-08-10T03:51:53.744Z,2.08
2022-08-10T03:56:58.879Z,2.05
2022-08-10T04:02:43.941Z,2.33
2022-08-10T04:07:36.344Z,2.17
2022-08-10T04:12:41.381Z,2.80
2022-08-10T04:18:04.447Z,2.35
2022-08-10T04:23:17.035Z,2.67
2022-08-10T04:28:22.425Z,2.40
2022-08-10T04:33:28.068Z,2.17
2022-08-10T04:38:38.495Z,2.30
2022-08-10T04:43:43.653Z,2.22
2022-08-10T04:49:01.720Z,3.75
2022-08-10T04:54:13.032Z,2.25
2022-08-10T04:59:20.819Z,2.22
2022-08-10T05:04:35.364Z,2.38
2022-08-10T05:10:01.332Z,2.20
2022-08-10T05:15:12.443Z,2.05
2022-08-10T05:20:17.476Z,2.33
2022-08-10T05:25:25.091Z,2.25
2022-08-10T05:30:30.155Z,2.30
2022-08-10T05:35:56.977Z,2.80
2022-08-10T05:41:03.568Z,3.10
2022-08-10T05:46:18.544Z,3.03
2022-08-10T05:51:26.335Z,2.13
2022-08-10T05:56:53.435Z,2.15
2022-08-10T06:02:31.076Z,2.60
2022-08-10T06:07:28.832Z,2.20
2022-08-10T06:12:54.337Z,2.58
2022-08-10T06:18:02.020Z,2.10
2022-08-10T06:23:08.315Z,1.85
2022-08-10T06:28:19.305Z,1.92
2022-08-10T06:33:26.944Z,1.70
2022-08-10T06:38:35.388Z,1.70
2022-08-10T06:43:43.815Z,2.10
2022-08-10T06:48:52.436Z,1.90
2022-08-10T06:54:03.214Z,2.10
2022-08-10T06:59:21.791Z,2.78
2022-08-10T07:04:33.004Z,2.03
2022-08-10T07:09:40.100Z,2.25
2022-08-10T07:14:48.297Z,1.83
2022-08-10T07:19:55.379Z,1.65
2022-08-10T07:25:01.659Z,1.50
2022-08-10T07:30:15.415Z,1.25
2022-08-10T07:35:22.202Z,1.40
2022-08-10T07:40:27.269Z,1.35
2022-08-10T07:45:36.995Z,1.23
2022-08-10T07:50:43.591Z,1.30
2022-08-10T07:56:04.512Z,1.45
2022-08-10T08:01:15.654Z,3.45
2022-08-10T08:06:24.661Z,2.03
2022-08-10T08:11:30.714Z,1.50
2022-08-10T08:16:39.631Z,1.63
2022-08-10T08:24:14.852Z,2.20
2022-08-10T08:27:11.059Z,1.60
2022-08-10T08:32:20.496Z,2.13
2022-08-10T08:38:31.802Z,1.95
2022-08-10T08:43:04.736Z,1.98
2022-08-10T08:48:32.914Z,1.88
2022-08-10T08:54:02.566Z,1.90
2022-08-10T08:59:18.087Z,2.03
2022-08-10T09:04:44.139Z,1.80
2022-08-10T09:10:05.629Z,2.60
2022-08-10T09:15:40.689Z,1.80
2022-08-10T09:20:51.381Z,2.38
2022-08-10T09:25:57.717Z,1.83
2022-08-10T09:31:28.865Z,1.90
2022-08-10T09:36:47.441Z,1.70
2022-08-10T09:41:58.650Z,1.58
2022-08-10T09:48:00.806Z,1.58
2022-08-10T09:53:16.810Z,1.33
2022-08-10T09:58:40.495Z,1.60
2022-08-10T10:03:50.527Z,1.42
2022-08-10T10:09:10.287Z,1.50
2022-08-10T10:14:22.124Z,1.42
2022-08-10T10:19:47.582Z,1.25
2022-08-10T10:25:00.096Z,1.30
2022-08-10T10:30:08.824Z,1.30
2022-08-10T10:35:27.358Z,1.00
2022-08-10T10:45:50.716Z,1.48
2022-08-10T10:51:08.415Z,1.10
2022-08-10T10:56:22.832Z,1.40
2022-08-10T11:01:35.349Z,1.30
2022-08-10T11:06:51.040Z,1.40
2022-08-10T11:12:04.822Z,1.42
2022-08-10T11:17:18.723Z,1.20
2022-08-10T11:22:30.855Z,1.40
2022-08-10T11:27:53.828Z,1.45
2022-08-10T11:33:10.683Z,1.50
2022-08-10T11:38:30.923Z,1.15
2022-08-10T11:43:49.644Z,1.45
2022-08-10T11:49:03.529Z,1.13
2022-08-10T11:54:12.227Z,1.33
2022-08-10T12:04:38.296Z,1.30
2022-08-10T12:10:06.305Z,1.17
2022-08-10T12:15:18.843Z,1.35
2022-08-10T12:20:29.943Z,1.17
2022-08-10T12:25:56.439Z,1.52
2022-08-10T12:31:09.487Z,1.00
2022-08-10T12:36:23.724Z,1.60
2022-08-10T12:41:44.635Z,1.10
2022-08-10T12:47:00.339Z,1.80
2022-08-10T12:52:09.902Z,1.05
2022-08-10T12:57:16.280Z,1.38
2022-08-10T13:02:27.739Z,1.40
2022-08-10T13:08:25.730Z,1.10
2022-08-10T13:13:01.755Z,1.47
2022-08-10T13:18:18.634Z,1.20
2022-08-10T13:23:27.129Z,1.10
2022-08-10T13:28:45.473Z,0.85
2022-08-10T13:34:40.831Z,1.40
2022-08-10T13:39:24.145Z,1.50
2022-08-10T13:49:49.622Z,1.02
2022-08-10T13:54:55.638Z,1.20
2022-08-10T14:00:34.162Z,1.08
2022-08-10T14:05:32.328Z,1.10
2022-08-10T14:11:09.661Z,1.45
2022-08-10T14:16:09.603Z,1.40
2022-08-10T14:21:17.660Z,1.20
2022-08-10T14:26:25.011Z,1.27
2022-08-10T14:31:33.884Z,1.00
2022-08-10T14:36:46.013Z,1.65
2022-08-10T14:42:02.974Z,1.10
2022-08-10T14:47:51.705Z,0.73
2022-08-10T14:52:44.073Z,1.10
2022-08-10T14:58:19.817Z,1.40
2022-08-10T15:04:01.000Z,1.00
2022-08-10T15:08:47.677Z,1.60
2022-08-10T15:14:12.503Z,1.15
2022-08-10T15:20:00.963Z,1.13
2022-08-10T15:25:19.486Z,1.33
2022-08-10T15:30:32.985Z,1.30
2022-08-10T15:40:58.904Z,1.10
2022-08-10T15:46:15.657Z,1.13
2022-08-10T15:51:28.501Z,1.30
2022-08-10T15:56:45.946Z,1.10
2022-08-10T16:02:13.934Z,1.08
2022-08-10T16:07:22.766Z,1.42
2022-08-10T16:12:59.210Z,1.13
2022-08-10T16:18:07.848Z,2.37
2022-08-10T16:23:14.268Z,0.88
2022-08-10T16:28:23.851Z,2.97
2022-08-10T16:33:53.512Z,1.02
2022-08-10T16:38:56.477Z,0.98
2022-08-10T16:44:04.479Z,1.33
2022-08-10T16:49:10.917Z,1.02
2022-08-10T16:54:17.988Z,1.70
2022-08-10T16:59:26.092Z,1.23
2022-08-10T17:04:32.500Z,1.20
2022-08-10T17:09:40.099Z,1.50
2022-08-10T17:14:52.413Z,1.10
2022-08-10T17:20:30.265Z,1.10
2022-08-10T17:25:48.697Z,1.10
2022-08-10T17:30:59.060Z,1.15
2022-08-10T17:36:05.944Z,0.95
2022-08-10T17:41:13.467Z,1.08
2022-08-10T17:46:21.324Z,1.40
2022-08-10T17:51:30.734Z,2.33
2022-08-10T17:56:37.702Z,3.28
2022-08-10T18:02:01.439Z,1.70
2022-08-10T18:07:08.253Z,1.75
2022-08-10T18:12:17.840Z,1.83
2022-08-10T18:17:27.962Z,1.67
2022-08-10T18:22:34.482Z,1.52
2022-08-10T18:28:01.254Z,1.35
2022-08-10T18:33:12.931Z,2.30
2022-08-10T18:38:18.768Z,1.80
2022-08-10T18:44:05.797Z,2.10
2022-08-10T18:49:09.552Z,2.38
2022-08-10T18:54:39.401Z,2.85
2022-08-10T19:00:07.811Z,3.80
2022-08-10T19:05:31.131Z,1.65
2022-08-10T19:10:39.816Z,1.48
2022-08-10T19:15:48.504Z,3.15
2022-08-10T19:21:00.861Z,2.03
2022-08-10T19:26:45.052Z,1.38
2022-08-10T19:31:49.167Z,1.40
2022-08-10T19:37:07.871Z,1.30
2022-08-10T19:42:19.034Z,1.33
2022-08-10T19:47:29.579Z,1.92
2022-08-10T19:52:43.971Z,1.05
2022-08-10T19:57:54.948Z,1.63
2022-08-10T20:03:11.832Z,1.35
2022-08-10T20:08:27.633Z,1.83
2022-08-10T20:13:40.226Z,1.40
2022-08-10T20:18:47.405Z,1.60
2022-08-10T20:23:57.176Z,1.40
2022-08-10T20:29:09.690Z,1.17
2022-08-10T20:34:24.594Z,1.00
2022-08-10T20:39:49.786Z,1.47
2022-08-10T20:45:05.091Z,1.00
2022-08-10T20:50:19.247Z,1.23
2022-08-10T20:55:29.985Z,1.10
2022-08-10T21:00:55.842Z,1.13
2022-08-10T21:06:31.713Z,1.08
2022-08-10T21:12:04.798Z,1.30
2022-08-10T21:17:19.514Z,1.30
2022-08-10T21:22:29.449Z,1.20
2022-08-10T21:28:07.005Z,1.50
2022-08-10T21:33:15.346Z,1.42
2022-08-10T21:38:26.535Z,1.20
2022-08-10T21:43:59.396Z,1.40
2022-08-10T21:49:22.954Z,1.40
2022-08-10T21:54:45.280Z,1.30
2022-08-10T22:00:11.115Z,1.23
2022-08-10T22:05:39.260Z,1.55
2022-08-10T22:10:59.496Z,1.50
2022-08-10T22:16:22.575Z,1.40
2022-08-10T22:21:52.715Z,1.50
2022-08-10T22:27:46.614Z,1.55
2022-08-10T22:33:10.052Z,2.10
2022-08-10T22:38:35.227Z,1.77
2022-08-10T22:43:53.654Z,1.95
2022-08-10T22:49:01.720Z,2.10
2022-08-10T22:54:30.996Z,1.75
2022-08-10T22:59:36.912Z,2.05
2022-08-10T23:04:51.945Z,2.00
2022-08-10T23:10:02.319Z,2.13
2022-08-10T23:15:22.496Z,2.22
2022-08-10T23:20:30.712Z,1.92
2022-08-10T23:25:36.914Z,2.10
2022-08-10T23:30:49.251Z,2.05
2022-08-10T23:36:21.359Z,3.13
2022-08-10T23:41:29.586Z,2.28
2022-08-10T23:46:37.610Z,2.85
2022-08-10T23:51:55.828Z,2.55
2022-08-10T23:57:03.455Z,3.03
